sensor_id;sensor_type;location;lat;lon;timestamp;temperature;humidity
2623;DHT22;1321;48.690;9.022;2023-05-31T00:01:08;17.70;59.80
2623;DHT22;1321;48.690;9.022;2023-05-31T00:03:37;17.70;60.60
2623;DHT22;1321;48.690;9.022;2023-05-31T00:06:08;17.60;58.70
2623;DHT22;1321;48.690;9.022;2023-05-31T00:08:39;17.60;59.10
2623;DHT22;1321;48.690;9.022;2023-05-31T00:11:07;17.60;58.70
2623;DHT22;1321;48.690;9.022;2023-05-31T00:13:36;17.60;63.70
2623;DHT22;1321;48.690;9.022;2023-05-31T00:16:06;17.50;58.70
2623;DHT22;1321;48.690;9.022;2023-05-31T00:18:54;17.50;57.20
2623;DHT22;1321;48.690;9.022;2023-05-31T00:21:22;17.40;57.10
2623;DHT22;1321;48.690;9.022;2023-05-31T00:23:51;17.40;56.80
2623;DHT22;1321;48.690;9.022;2023-05-31T00:26:19;17.40;57.20
2623;DHT22;1321;48.690;9.022;2023-05-31T00:28:49;17.40;57.70
2623;DHT22;1321;48.690;9.022;2023-05-31T00:31:17;17.40;56.60
2623;DHT22;1321;48.690;9.022;2023-05-31T00:33:46;17.30;56.50
2623;DHT22;1321;48.690;9.022;2023-05-31T00:36:14;17.30;56.10
2623;DHT22;1321;48.690;9.022;2023-05-31T00:38:42;17.30;55.90
2623;DHT22;1321;48.690;9.022;2023-05-31T00:41:11;17.30;56.60
2623;DHT22;1321;48.690;9.022;2023-05-31T00:43:39;17.30;54.80
2623;DHT22;1321;48.690;9.022;2023-05-31T00:46:11;17.20;54.10
2623;DHT22;1321;48.690;9.022;2023-05-31T00:48:41;17.20;54.90
2623;DHT22;1321;48.690;9.022;2023-05-31T00:51:10;17.20;54.50
2623;DHT22;1321;48.690;9.022;2023-05-31T00:53:39;17.20;53.90
2623;DHT22;1321;48.690;9.022;2023-05-31T00:56:07;17.20;53.40
2623;DHT22;1321;48.690;9.022;2023-05-31T00:58:37;17.20;57.80
2623;DHT22;1321;48.690;9.022;2023-05-31T01:01:06;17.20;53.70
2623;DHT22;1321;48.690;9.022;2023-05-31T01:03:34;17.20;53.30
2623;DHT22;1321;48.690;9.022;2023-05-31T01:06:03;17.20;53.30
2623;DHT22;1321;48.690;9.022;2023-05-31T01:08:32;17.20;52.50
2623;DHT22;1321;48.690;9.022;2023-05-31T01:11:05;17.20;52.70
2623;DHT22;1321;48.690;9.022;2023-05-31T01:13:42;17.10;54.30
2623;DHT22;1321;48.690;9.022;2023-05-31T01:16:16;17.10;51.90
2623;DHT22;1321;48.690;9.022;2023-05-31T01:18:50;17.10;67.60
2623;DHT22;1321;48.690;9.022;2023-05-31T01:21:28;17.10;51.90
2623;DHT22;1321;48.690;9.022;2023-05-31T01:24:12;17.00;51.10
2623;DHT22;1321;48.690;9.022;2023-05-31T01:26:48;17.00;52.10
2623;DHT22;1321;48.690;9.022;2023-05-31T01:29:19;17.00;51.20
2623;DHT22;1321;48.690;9.022;2023-05-31T01:31:48;17.00;49.70
2623;DHT22;1321;48.690;9.022;2023-05-31T01:34:18;17.00;49.80
2623;DHT22;1321;48.690;9.022;2023-05-31T01:36:46;17.00;50.60
2623;DHT22;1321;48.690;9.022;2023-05-31T01:39:15;17.10;51.40
2623;DHT22;1321;48.690;9.022;2023-05-31T01:41:44;17.00;51.30
2623;DHT22;1321;48.690;9.022;2023-05-31T01:44:16;17.00;49.90
2623;DHT22;1321;48.690;9.022;2023-05-31T01:46:46;17.00;65.40
2623;DHT22;1321;48.690;9.022;2023-05-31T01:49:15;16.90;50.00
2623;DHT22;1321;48.690;9.022;2023-05-31T01:51:45;16.90;49.10
2623;DHT22;1321;48.690;9.022;2023-05-31T01:54:13;16.80;50.00
2623;DHT22;1321;48.690;9.022;2023-05-31T01:56:42;16.80;49.10
2623;DHT22;1321;48.690;9.022;2023-05-31T01:59:14;16.80;49.00
2623;DHT22;1321;48.690;9.022;2023-05-31T02:01:43;16.70;48.10
2623;DHT22;1321;48.690;9.022;2023-05-31T02:04:12;16.70;47.60
2623;DHT22;1321;48.690;9.022;2023-05-31T02:06:40;16.70;48.10
2623;DHT22;1321;48.690;9.022;2023-05-31T02:09:08;16.70;48.30
2623;DHT22;1321;48.690;9.022;2023-05-31T02:11:36;16.70;47.00
2623;DHT22;1321;48.690;9.022;2023-05-31T02:14:04;16.60;46.30
2623;DHT22;1321;48.690;9.022;2023-05-31T02:16:34;16.60;47.00
2623;DHT22;1321;48.690;9.022;2023-05-31T02:19:02;16.60;45.60
2623;DHT22;1321;48.690;9.022;2023-05-31T02:21:32;16.60;45.70
2623;DHT22;1321;48.690;9.022;2023-05-31T02:24:02;16.60;46.90
2623;DHT22;1321;48.690;9.022;2023-05-31T02:26:30;16.70;46.50
2623;DHT22;1321;48.690;9.022;2023-05-31T02:28:58;16.60;46.90
2623;DHT22;1321;48.690;9.022;2023-05-31T02:31:26;16.50;45.20
2623;DHT22;1321;48.690;9.022;2023-05-31T02:33:55;16.60;46.30
2623;DHT22;1321;48.690;9.022;2023-05-31T02:36:23;16.50;46.10
2623;DHT22;1321;48.690;9.022;2023-05-31T02:38:56;16.60;46.20
2623;DHT22;1321;48.690;9.022;2023-05-31T02:41:24;16.50;45.70
2623;DHT22;1321;48.690;9.022;2023-05-31T02:43:53;16.60;46.00
2623;DHT22;1321;48.690;9.022;2023-05-31T02:46:21;16.50;46.30
2623;DHT22;1321;48.690;9.022;2023-05-31T02:48:49;16.40;46.10
2623;DHT22;1321;48.690;9.022;2023-05-31T02:51:19;16.40;46.40
2623;DHT22;1321;48.690;9.022;2023-05-31T02:53:47;16.40;46.30
2623;DHT22;1321;48.690;9.022;2023-05-31T02:56:15;16.40;46.30
2623;DHT22;1321;48.690;9.022;2023-05-31T02:58:43;16.40;45.60
2623;DHT22;1321;48.690;9.022;2023-05-31T03:01:12;16.40;46.40
2623;DHT22;1321;48.690;9.022;2023-05-31T03:03:40;16.40;45.20
2623;DHT22;1321;48.690;9.022;2023-05-31T03:06:08;16.30;45.30
2623;DHT22;1321;48.690;9.022;2023-05-31T03:08:39;16.30;45.80
2623;DHT22;1321;48.690;9.022;2023-05-31T03:11:07;16.30;45.60
2623;DHT22;1321;48.690;9.022;2023-05-31T03:13:35;16.30;46.10
2623;DHT22;1321;48.690;9.022;2023-05-31T03:16:04;16.30;45.50
2623;DHT22;1321;48.690;9.022;2023-05-31T03:18:32;16.20;45.50
2623;DHT22;1321;48.690;9.022;2023-05-31T03:21:00;16.20;46.40
2623;DHT22;1321;48.690;9.022;2023-05-31T03:23:28;16.20;45.80
2623;DHT22;1321;48.690;9.022;2023-05-31T03:25:57;16.30;46.30
2623;DHT22;1321;48.690;9.022;2023-05-31T03:28:25;16.20;45.40
2623;DHT22;1321;48.690;9.022;2023-05-31T03:30:53;16.20;45.70
2623;DHT22;1321;48.690;9.022;2023-05-31T03:33:22;16.20;45.90
2623;DHT22;1321;48.690;9.022;2023-05-31T03:35:50;16.20;44.40
2623;DHT22;1321;48.690;9.022;2023-05-31T03:38:18;16.20;45.80
2623;DHT22;1321;48.690;9.022;2023-05-31T03:40:46;16.10;44.80
2623;DHT22;1321;48.690;9.022;2023-05-31T03:43:16;16.10;46.00
2623;DHT22;1321;48.690;9.022;2023-05-31T03:45:44;16.10;59.60
2623;DHT22;1321;48.690;9.022;2023-05-31T03:48:12;16.10;44.40
2623;DHT22;1321;48.690;9.022;2023-05-31T03:50:40;16.10;44.40
2623;DHT22;1321;48.690;9.022;2023-05-31T03:53:09;16.10;45.40
2623;DHT22;1321;48.690;9.022;2023-05-31T03:55:37;16.00;44.90
2623;DHT22;1321;48.690;9.022;2023-05-31T03:58:05;16.00;45.30
2623;DHT22;1321;48.690;9.022;2023-05-31T04:00:34;16.10;45.80
2623;DHT22;1321;48.690;9.022;2023-05-31T04:03:03;16.00;45.60
2623;DHT22;1321;48.690;9.022;2023-05-31T04:05:31;16.00;46.10
2623;DHT22;1321;48.690;9.022;2023-05-31T04:07:59;16.00;46.50
2623;DHT22;1321;48.690;9.022;2023-05-31T04:10:29;16.00;47.40
2623;DHT22;1321;48.690;9.022;2023-05-31T04:12:58;16.00;47.50
2623;DHT22;1321;48.690;9.022;2023-05-31T04:15:26;16.00;47.60
2623;DHT22;1321;48.690;9.022;2023-05-31T04:17:56;15.90;47.10
2623;DHT22;1321;48.690;9.022;2023-05-31T04:20:24;16.00;48.20
2623;DHT22;1321;48.690;9.022;2023-05-31T04:22:53;15.90;47.60
2623;DHT22;1321;48.690;9.022;2023-05-31T04:25:21;16.00;49.90
2623;DHT22;1321;48.690;9.022;2023-05-31T04:27:49;16.00;49.50
2623;DHT22;1321;48.690;9.022;2023-05-31T04:30:18;16.10;48.40
2623;DHT22;1321;48.690;9.022;2023-05-31T04:32:47;16.10;50.00
2623;DHT22;1321;48.690;9.022;2023-05-31T04:35:19;16.00;49.80
2623;DHT22;1321;48.690;9.022;2023-05-31T04:37:49;16.00;55.90
2623;DHT22;1321;48.690;9.022;2023-05-31T04:40:19;16.00;51.00
2623;DHT22;1321;48.690;9.022;2023-05-31T04:42:47;16.00;50.70
2623;DHT22;1321;48.690;9.022;2023-05-31T04:45:15;16.10;51.20
2623;DHT22;1321;48.690;9.022;2023-05-31T04:47:44;16.10;51.20
2623;DHT22;1321;48.690;9.022;2023-05-31T04:50:13;16.10;52.10
2623;DHT22;1321;48.690;9.022;2023-05-31T04:52:44;16.10;51.90
2623;DHT22;1321;48.690;9.022;2023-05-31T04:55:12;16.10;52.90
2623;DHT22;1321;48.690;9.022;2023-05-31T04:57:40;16.10;53.10
2623;DHT22;1321;48.690;9.022;2023-05-31T05:00:09;16.10;53.50
2623;DHT22;1321;48.690;9.022;2023-05-31T05:02:42;16.20;54.30
2623;DHT22;1321;48.690;9.022;2023-05-31T05:05:10;16.20;54.70
2623;DHT22;1321;48.690;9.022;2023-05-31T05:07:38;16.20;55.20
2623;DHT22;1321;48.690;9.022;2023-05-31T05:10:09;16.20;56.30
2623;DHT22;1321;48.690;9.022;2023-05-31T05:12:37;16.20;56.70
2623;DHT22;1321;48.690;9.022;2023-05-31T05:15:06;16.30;57.40
2623;DHT22;1321;48.690;9.022;2023-05-31T05:17:34;16.30;56.60
2623;DHT22;1321;48.690;9.022;2023-05-31T05:20:03;16.40;57.10
2623;DHT22;1321;48.690;9.022;2023-05-31T05:22:32;16.40;58.40
2623;DHT22;1321;48.690;9.022;2023-05-31T05:25:00;16.40;59.00
2623;DHT22;1321;48.690;9.022;2023-05-31T05:27:29;16.50;60.10
2623;DHT22;1321;48.690;9.022;2023-05-31T05:29:57;16.50;61.10
2623;DHT22;1321;48.690;9.022;2023-05-31T05:32:26;16.50;61.00
2623;DHT22;1321;48.690;9.022;2023-05-31T05:34:54;16.50;62.50
2623;DHT22;1321;48.690;9.022;2023-05-31T05:37:22;16.60;63.70
2623;DHT22;1321;48.690;9.022;2023-05-31T05:39:50;16.60;62.80
2623;DHT22;1321;48.690;9.022;2023-05-31T05:42:18;16.70;65.20
2623;DHT22;1321;48.690;9.022;2023-05-31T05:44:47;16.70;66.60
2623;DHT22;1321;48.690;9.022;2023-05-31T05:47:16;16.80;67.50
2623;DHT22;1321;48.690;9.022;2023-05-31T05:49:43;16.80;64.80
2623;DHT22;1321;48.690;9.022;2023-05-31T05:52:12;16.90;66.70
2623;DHT22;1321;48.690;9.022;2023-05-31T05:54:40;17.00;69.70
2623;DHT22;1321;48.690;9.022;2023-05-31T05:57:08;17.00;68.30
2623;DHT22;1321;48.690;9.022;2023-05-31T05:59:36;17.00;69.80
2623;DHT22;1321;48.690;9.022;2023-05-31T06:02:06;17.00;68.20
2623;DHT22;1321;48.690;9.022;2023-05-31T06:04:34;17.10;70.00
2623;DHT22;1321;48.690;9.022;2023-05-31T06:07:02;17.10;70.80
2623;DHT22;1321;48.690;9.022;2023-05-31T06:09:30;17.20;71.00
2623;DHT22;1321;48.690;9.022;2023-05-31T06:11:58;17.30;71.80
2623;DHT22;1321;48.690;9.022;2023-05-31T06:14:27;17.30;73.50
2623;DHT22;1321;48.690;9.022;2023-05-31T06:16:55;17.40;74.30
2623;DHT22;1321;48.690;9.022;2023-05-31T06:19:24;17.40;75.30
2623;DHT22;1321;48.690;9.022;2023-05-31T06:21:52;17.50;75.00
2623;DHT22;1321;48.690;9.022;2023-05-31T06:24:24;17.50;77.30
2623;DHT22;1321;48.690;9.022;2023-05-31T06:26:53;17.60;77.80
2623;DHT22;1321;48.690;9.022;2023-05-31T06:29:21;17.60;76.10
2623;DHT22;1321;48.690;9.022;2023-05-31T06:31:49;17.70;77.70
2623;DHT22;1321;48.690;9.022;2023-05-31T06:34:17;17.80;79.40
2623;DHT22;1321;48.690;9.022;2023-05-31T06:36:47;17.90;80.10
2623;DHT22;1321;48.690;9.022;2023-05-31T06:39:15;18.00;80.90
2623;DHT22;1321;48.690;9.022;2023-05-31T06:41:43;18.00;81.70
2623;DHT22;1321;48.690;9.022;2023-05-31T06:44:11;18.10;84.70
2623;DHT22;1321;48.690;9.022;2023-05-31T06:46:39;18.20;83.60
2623;DHT22;1321;48.690;9.022;2023-05-31T06:49:07;18.30;82.20
2623;DHT22;1321;48.690;9.022;2023-05-31T06:51:39;18.30;81.00
2623;DHT22;1321;48.690;9.022;2023-05-31T06:54:08;18.40;83.80
2623;DHT22;1321;48.690;9.022;2023-05-31T06:56:36;18.40;95.30
2623;DHT22;1321;48.690;9.022;2023-05-31T06:59:04;18.40;86.80
2623;DHT22;1321;48.690;9.022;2023-05-31T07:01:32;18.50;87.90
2623;DHT22;1321;48.690;9.022;2023-05-31T07:04:01;18.60;89.40
2623;DHT22;1321;48.690;9.022;2023-05-31T07:06:29;18.60;91.50
2623;DHT22;1321;48.690;9.022;2023-05-31T07:08:58;18.60;91.60
2623;DHT22;1321;48.690;9.022;2023-05-31T07:11:27;18.70;91.40
2623;DHT22;1321;48.690;9.022;2023-05-31T07:13:56;18.70;92.50
2623;DHT22;1321;48.690;9.022;2023-05-31T07:16:26;18.80;93.30
2623;DHT22;1321;48.690;9.022;2023-05-31T07:18:55;19.00;92.80
2623;DHT22;1321;48.690;9.022;2023-05-31T07:21:23;18.90;92.10
2623;DHT22;1321;48.690;9.022;2023-05-31T07:23:51;18.90;92.70
2623;DHT22;1321;48.690;9.022;2023-05-31T07:26:20;19.00;93.30
2623;DHT22;1321;48.690;9.022;2023-05-31T07:28:49;19.10;93.60
2623;DHT22;1321;48.690;9.022;2023-05-31T07:31:20;19.10;93.90
2623;DHT22;1321;48.690;9.022;2023-05-31T07:33:48;19.10;94.20
2623;DHT22;1321;48.690;9.022;2023-05-31T07:36:17;19.10;94.00
2623;DHT22;1321;48.690;9.022;2023-05-31T07:38:45;19.20;93.80
2623;DHT22;1321;48.690;9.022;2023-05-31T07:41:13;19.30;99.90
2623;DHT22;1321;48.690;9.022;2023-05-31T07:43:43;19.30;94.90
2623;DHT22;1321;48.690;9.022;2023-05-31T07:46:14;19.30;92.90
2623;DHT22;1321;48.690;9.022;2023-05-31T07:48:42;19.30;94.90
2623;DHT22;1321;48.690;9.022;2023-05-31T07:51:10;19.40;96.30
2623;DHT22;1321;48.690;9.022;2023-05-31T07:53:39;19.40;95.60
2623;DHT22;1321;48.690;9.022;2023-05-31T07:56:07;19.50;95.40
2623;DHT22;1321;48.690;9.022;2023-05-31T07:58:36;19.50;96.30
2623;DHT22;1321;48.690;9.022;2023-05-31T08:01:04;19.60;96.20
2623;DHT22;1321;48.690;9.022;2023-05-31T08:03:34;19.60;96.40
2623;DHT22;1321;48.690;9.022;2023-05-31T08:06:02;19.70;97.90
2623;DHT22;1321;48.690;9.022;2023-05-31T08:08:31;19.70;96.90
2623;DHT22;1321;48.690;9.022;2023-05-31T08:11:01;19.70;97.90
2623;DHT22;1321;48.690;9.022;2023-05-31T08:13:29;19.90;98.40
2623;DHT22;1321;48.690;9.022;2023-05-31T08:15:57;19.90;99.00
2623;DHT22;1321;48.690;9.022;2023-05-31T08:18:26;19.90;99.90
2623;DHT22;1321;48.690;9.022;2023-05-31T08:20:55;20.00;99.90
2623;DHT22;1321;48.690;9.022;2023-05-31T08:23:24;20.10;99.90
2623;DHT22;1321;48.690;9.022;2023-05-31T08:25:52;20.10;99.70
2623;DHT22;1321;48.690;9.022;2023-05-31T08:28:20;20.10;99.90
2623;DHT22;1321;48.690;9.022;2023-05-31T08:30:48;20.10;99.50
2623;DHT22;1321;48.690;9.022;2023-05-31T08:33:17;20.20;99.90
2623;DHT22;1321;48.690;9.022;2023-05-31T08:35:45;20.20;99.30
2623;DHT22;1321;48.690;9.022;2023-05-31T08:38:15;20.30;99.90
2623;DHT22;1321;48.690;9.022;2023-05-31T08:40:43;20.30;99.70
2623;DHT22;1321;48.690;9.022;2023-05-31T08:43:13;20.30;99.90
2623;DHT22;1321;48.690;9.022;2023-05-31T08:45:48;20.40;99.90
2623;DHT22;1321;48.690;9.022;2023-05-31T08:48:22;20.40;99.90
2623;DHT22;1321;48.690;9.022;2023-05-31T08:50:53;20.40;99.90
2623;DHT22;1321;48.690;9.022;2023-05-31T08:53:24;20.50;99.90
2623;DHT22;1321;48.690;9.022;2023-05-31T08:55:53;20.50;99.90
2623;DHT22;1321;48.690;9.022;2023-05-31T08:58:22;20.60;99.90
2623;DHT22;1321;48.690;9.022;2023-05-31T09:00:50;20.70;99.90
2623;DHT22;1321;48.690;9.022;2023-05-31T09:03:19;20.70;99.90
2623;DHT22;1321;48.690;9.022;2023-05-31T09:05:54;20.80;99.90
2623;DHT22;1321;48.690;9.022;2023-05-31T09:08:24;20.70;99.90
2623;DHT22;1321;48.690;9.022;2023-05-31T09:10:53;20.80;99.90
2623;DHT22;1321;48.690;9.022;2023-05-31T09:13:21;20.90;99.90
2623;DHT22;1321;48.690;9.022;2023-05-31T09:15:51;20.90;99.90
2623;DHT22;1321;48.690;9.022;2023-05-31T09:18:21;21.00;99.90
2623;DHT22;1321;48.690;9.022;2023-05-31T09:20:51;20.90;99.90
2623;DHT22;1321;48.690;9.022;2023-05-31T09:23:24;20.90;99.90
2623;DHT22;1321;48.690;9.022;2023-05-31T09:25:53;20.90;99.90
2623;DHT22;1321;48.690;9.022;2023-05-31T09:28:21;21.00;99.90
2623;DHT22;1321;48.690;9.022;2023-05-31T09:31:01;21.10;99.90
2623;DHT22;1321;48.690;9.022;2023-05-31T09:33:37;21.10;99.90
2623;DHT22;1321;48.690;9.022;2023-05-31T09:36:07;21.20;99.90
2623;DHT22;1321;48.690;9.022;2023-05-31T09:38:37;21.20;99.90
2623;DHT22;1321;48.690;9.022;2023-05-31T09:41:13;21.30;99.90
2623;DHT22;1321;48.690;9.022;2023-05-31T09:43:42;21.30;99.90
2623;DHT22;1321;48.690;9.022;2023-05-31T09:46:12;21.30;99.90
2623;DHT22;1321;48.690;9.022;2023-05-31T09:48:41;21.40;99.90
2623;DHT22;1321;48.690;9.022;2023-05-31T09:51:10;21.40;99.90
2623;DHT22;1321;48.690;9.022;2023-05-31T09:53:41;21.50;99.90
2623;DHT22;1321;48.690;9.022;2023-05-31T09:56:10;21.50;99.90
2623;DHT22;1321;48.690;9.022;2023-05-31T09:58:39;21.50;99.90
2623;DHT22;1321;48.690;9.022;2023-05-31T10:01:07;21.50;99.90
2623;DHT22;1321;48.690;9.022;2023-05-31T10:03:38;21.60;99.90
2623;DHT22;1321;48.690;9.022;2023-05-31T10:06:07;21.60;99.90
2623;DHT22;1321;48.690;9.022;2023-05-31T10:08:35;21.60;99.90
2623;DHT22;1321;48.690;9.022;2023-05-31T10:11:06;21.70;99.90
2623;DHT22;1321;48.690;9.022;2023-05-31T10:13:42;21.80;99.90
2623;DHT22;1321;48.690;9.022;2023-05-31T10:16:11;21.80;99.90
2623;DHT22;1321;48.690;9.022;2023-05-31T10:18:43;21.80;99.90
2623;DHT22;1321;48.690;9.022;2023-05-31T10:21:16;21.80;99.90
2623;DHT22;1321;48.690;9.022;2023-05-31T10:23:55;21.90;99.90
2623;DHT22;1321;48.690;9.022;2023-05-31T10:26:31;21.90;99.90
2623;DHT22;1321;48.690;9.022;2023-05-31T10:29:10;21.90;99.90
2623;DHT22;1321;48.690;9.022;2023-05-31T10:31:49;22.00;99.90
2623;DHT22;1321;48.690;9.022;2023-05-31T10:34:21;22.00;99.90
2623;DHT22;1321;48.690;9.022;2023-05-31T10:36:50;22.00;99.90
2623;DHT22;1321;48.690;9.022;2023-05-31T10:39:26;22.00;99.90
2623;DHT22;1321;48.690;9.022;2023-05-31T10:42:09;22.10;99.90
2623;DHT22;1321;48.690;9.022;2023-05-31T10:44:48;22.10;99.90
2623;DHT22;1321;48.690;9.022;2023-05-31T10:47:20;22.20;99.90
2623;DHT22;1321;48.690;9.022;2023-05-31T10:49:53;22.20;99.90
2623;DHT22;1321;48.690;9.022;2023-05-31T10:52:23;22.30;99.90
2623;DHT22;1321;48.690;9.022;2023-05-31T10:55:17;22.30;99.90
2623;DHT22;1321;48.690;9.022;2023-05-31T10:57:52;22.30;99.90
2623;DHT22;1321;48.690;9.022;2023-05-31T11:00:21;22.30;99.90
2623;DHT22;1321;48.690;9.022;2023-05-31T11:02:51;22.30;99.90
2623;DHT22;1321;48.690;9.022;2023-05-31T11:05:23;22.20;99.90
2623;DHT22;1321;48.690;9.022;2023-05-31T11:07:52;22.30;99.90
2623;DHT22;1321;48.690;9.022;2023-05-31T11:10:25;22.40;99.90
2623;DHT22;1321;48.690;9.022;2023-05-31T11:13:01;22.40;99.90
2623;DHT22;1321;48.690;9.022;2023-05-31T11:15:39;22.50;99.90
2623;DHT22;1321;48.690;9.022;2023-05-31T11:18:09;22.50;99.90
2623;DHT22;1321;48.690;9.022;2023-05-31T11:20:37;22.50;99.90
2623;DHT22;1321;48.690;9.022;2023-05-31T11:23:29;22.50;99.90
2623;DHT22;1321;48.690;9.022;2023-05-31T11:26:08;22.60;99.90
2623;DHT22;1321;48.690;9.022;2023-05-31T11:28:59;22.50;99.90
2623;DHT22;1321;48.690;9.022;2023-05-31T11:31:56;22.60;99.90
2623;DHT22;1321;48.690;9.022;2023-05-31T11:34:28;22.60;99.90
2623;DHT22;1321;48.690;9.022;2023-05-31T11:36:58;22.60;99.90
2623;DHT22;1321;48.690;9.022;2023-05-31T11:39:26;22.70;99.90
2623;DHT22;1321;48.690;9.022;2023-05-31T11:41:56;22.70;99.90
2623;DHT22;1321;48.690;9.022;2023-05-31T11:44:28;22.80;99.90
2623;DHT22;1321;48.690;9.022;2023-05-31T11:47:01;22.80;99.90
2623;DHT22;1321;48.690;9.022;2023-05-31T11:49:32;22.80;99.90
2623;DHT22;1321;48.690;9.022;2023-05-31T11:52:01;22.80;99.90
2623;DHT22;1321;48.690;9.022;2023-05-31T11:54:30;22.90;99.90
2623;DHT22;1321;48.690;9.022;2023-05-31T11:57:01;22.90;99.90
2623;DHT22;1321;48.690;9.022;2023-05-31T11:59:32;22.90;99.90
2623;DHT22;1321;48.690;9.022;2023-05-31T12:02:05;22.90;99.90
2623;DHT22;1321;48.690;9.022;2023-05-31T12:04:35;22.90;99.90
2623;DHT22;1321;48.690;9.022;2023-05-31T12:07:05;23.00;99.90
2623;DHT22;1321;48.690;9.022;2023-05-31T12:09:33;23.00;99.90
2623;DHT22;1321;48.690;9.022;2023-05-31T12:12:03;23.00;99.90
2623;DHT22;1321;48.690;9.022;2023-05-31T12:14:34;23.00;99.90
2623;DHT22;1321;48.690;9.022;2023-05-31T12:17:03;23.00;99.90
2623;DHT22;1321;48.690;9.022;2023-05-31T12:19:33;22.90;99.90
2623;DHT22;1321;48.690;9.022;2023-05-31T12:22:04;23.00;99.90
2623;DHT22;1321;48.690;9.022;2023-05-31T12:24:32;23.10;99.90
2623;DHT22;1321;48.690;9.022;2023-05-31T12:27:01;23.10;99.90
2623;DHT22;1321;48.690;9.022;2023-05-31T12:29:33;23.10;99.90
2623;DHT22;1321;48.690;9.022;2023-05-31T12:32:03;23.20;99.90
2623;DHT22;1321;48.690;9.022;2023-05-31T12:34:33;23.20;99.90
2623;DHT22;1321;48.690;9.022;2023-05-31T12:37:04;23.20;99.90
2623;DHT22;1321;48.690;9.022;2023-05-31T12:39:33;23.20;99.90
2623;DHT22;1321;48.690;9.022;2023-05-31T12:42:02;23.20;99.90
2623;DHT22;1321;48.690;9.022;2023-05-31T12:44:31;23.20;99.90
2623;DHT22;1321;48.690;9.022;2023-05-31T12:47:02;23.20;99.90
2623;DHT22;1321;48.690;9.022;2023-05-31T12:49:33;23.20;99.90
2623;DHT22;1321;48.690;9.022;2023-05-31T12:52:05;23.20;99.90
2623;DHT22;1321;48.690;9.022;2023-05-31T12:54:35;23.30;99.90
2623;DHT22;1321;48.690;9.022;2023-05-31T12:57:04;23.40;99.90
2623;DHT22;1321;48.690;9.022;2023-05-31T12:59:33;23.30;99.90
2623;DHT22;1321;48.690;9.022;2023-05-31T13:02:03;23.30;99.90
2623;DHT22;1321;48.690;9.022;2023-05-31T13:04:32;23.30;99.90
2623;DHT22;1321;48.690;9.022;2023-05-31T13:07:00;23.30;99.90
2623;DHT22;1321;48.690;9.022;2023-05-31T13:09:29;23.30;99.90
2623;DHT22;1321;48.690;9.022;2023-05-31T13:11:59;23.40;99.90
2623;DHT22;1321;48.690;9.022;2023-05-31T13:14:27;23.50;99.90
2623;DHT22;1321;48.690;9.022;2023-05-31T13:16:55;23.50;99.90
2623;DHT22;1321;48.690;9.022;2023-05-31T13:19:25;23.40;99.90
2623;DHT22;1321;48.690;9.022;2023-05-31T13:21:53;23.40;99.90
2623;DHT22;1321;48.690;9.022;2023-05-31T13:24:22;23.50;99.90
2623;DHT22;1321;48.690;9.022;2023-05-31T13:26:50;23.50;99.90
2623;DHT22;1321;48.690;9.022;2023-05-31T13:29:18;23.60;99.90
2623;DHT22;1321;48.690;9.022;2023-05-31T13:31:49;23.50;99.90
2623;DHT22;1321;48.690;9.022;2023-05-31T13:34:17;23.60;99.90
2623;DHT22;1321;48.690;9.022;2023-05-31T13:36:47;23.60;99.90
2623;DHT22;1321;48.690;9.022;2023-05-31T13:39:15;23.60;99.90
2623;DHT22;1321;48.690;9.022;2023-05-31T13:41:44;23.60;99.90
2623;DHT22;1321;48.690;9.022;2023-05-31T13:44:12;23.60;99.90
2623;DHT22;1321;48.690;9.022;2023-05-31T13:46:42;23.60;99.90
2623;DHT22;1321;48.690;9.022;2023-05-31T13:49:11;23.50;99.90
2623;DHT22;1321;48.690;9.022;2023-05-31T13:51:42;23.60;99.90
2623;DHT22;1321;48.690;9.022;2023-05-31T13:54:12;23.70;99.90
2623;DHT22;1321;48.690;9.022;2023-05-31T13:56:41;23.70;99.90
2623;DHT22;1321;48.690;9.022;2023-05-31T13:59:09;23.70;99.90
2623;DHT22;1321;48.690;9.022;2023-05-31T14:01:38;23.70;99.90
2623;DHT22;1321;48.690;9.022;2023-05-31T14:04:06;23.80;99.90
2623;DHT22;1321;48.690;9.022;2023-05-31T14:06:35;23.70;99.90
2623;DHT22;1321;48.690;9.022;2023-05-31T14:09:04;23.70;99.90
2623;DHT22;1321;48.690;9.022;2023-05-31T14:11:34;23.80;99.90
2623;DHT22;1321;48.690;9.022;2023-05-31T14:14:02;23.70;99.90
2623;DHT22;1321;48.690;9.022;2023-05-31T14:16:30;23.70;99.90
2623;DHT22;1321;48.690;9.022;2023-05-31T14:18:59;23.70;99.90
2623;DHT22;1321;48.690;9.022;2023-05-31T14:21:27;23.70;99.90
2623;DHT22;1321;48.690;9.022;2023-05-31T14:23:56;23.70;99.90
2623;DHT22;1321;48.690;9.022;2023-05-31T14:26:24;23.70;99.90
2623;DHT22;1321;48.690;9.022;2023-05-31T14:28:55;23.70;99.90
2623;DHT22;1321;48.690;9.022;2023-05-31T14:31:23;23.70;99.90
2623;DHT22;1321;48.690;9.022;2023-05-31T14:33:51;23.70;99.90
2623;DHT22;1321;48.690;9.022;2023-05-31T14:36:20;23.80;99.90
2623;DHT22;1321;48.690;9.022;2023-05-31T14:38:48;23.70;99.90
2623;DHT22;1321;48.690;9.022;2023-05-31T14:41:17;23.80;99.90
2623;DHT22;1321;48.690;9.022;2023-05-31T14:43:45;23.80;99.90
2623;DHT22;1321;48.690;9.022;2023-05-31T14:46:15;23.80;99.90
2623;DHT22;1321;48.690;9.022;2023-05-31T14:48:43;23.80;99.90
2623;DHT22;1321;48.690;9.022;2023-05-31T14:51:11;23.90;99.90
2623;DHT22;1321;48.690;9.022;2023-05-31T14:53:39;23.80;99.90
2623;DHT22;1321;48.690;9.022;2023-05-31T14:56:07;23.80;99.90
2623;DHT22;1321;48.690;9.022;2023-05-31T14:58:44;23.80;99.90
2623;DHT22;1321;48.690;9.022;2023-05-31T15:01:15;23.80;99.90
2623;DHT22;1321;48.690;9.022;2023-05-31T15:03:44;23.80;99.90
2623;DHT22;1321;48.690;9.022;2023-05-31T15:06:12;23.80;99.90
2623;DHT22;1321;48.690;9.022;2023-05-31T15:08:40;23.80;99.90
2623;DHT22;1321;48.690;9.022;2023-05-31T15:11:08;23.90;99.90
2623;DHT22;1321;48.690;9.022;2023-05-31T15:13:37;23.80;99.90
2623;DHT22;1321;48.690;9.022;2023-05-31T15:16:05;23.80;99.90
2623;DHT22;1321;48.690;9.022;2023-05-31T15:18:35;23.90;99.90
2623;DHT22;1321;48.690;9.022;2023-05-31T15:21:03;23.90;99.90
2623;DHT22;1321;48.690;9.022;2023-05-31T15:23:33;23.80;99.90
2623;DHT22;1321;48.690;9.022;2023-05-31T15:26:02;23.90;99.90
2623;DHT22;1321;48.690;9.022;2023-05-31T15:28:30;23.90;99.90
2623;DHT22;1321;48.690;9.022;2023-05-31T15:30:58;23.90;99.90
2623;DHT22;1321;48.690;9.022;2023-05-31T15:33:28;23.90;99.90
2623;DHT22;1321;48.690;9.022;2023-05-31T15:35:58;23.90;99.90
2623;DHT22;1321;48.690;9.022;2023-05-31T15:38:26;23.90;99.90
2623;DHT22;1321;48.690;9.022;2023-05-31T15:40:54;23.90;99.90
2623;DHT22;1321;48.690;9.022;2023-05-31T15:43:23;23.90;99.90
2623;DHT22;1321;48.690;9.022;2023-05-31T15:45:53;23.90;99.90
2623;DHT22;1321;48.690;9.022;2023-05-31T15:48:21;23.90;99.90
2623;DHT22;1321;48.690;9.022;2023-05-31T15:50:50;23.90;99.90
2623;DHT22;1321;48.690;9.022;2023-05-31T15:53:20;23.90;99.90
2623;DHT22;1321;48.690;9.022;2023-05-31T15:55:48;23.90;99.90
2623;DHT22;1321;48.690;9.022;2023-05-31T15:58:16;23.90;99.90
2623;DHT22;1321;48.690;9.022;2023-05-31T16:00:44;23.90;99.90
2623;DHT22;1321;48.690;9.022;2023-05-31T16:03:14;23.90;99.90
2623;DHT22;1321;48.690;9.022;2023-05-31T16:05:42;23.90;99.90
2623;DHT22;1321;48.690;9.022;2023-05-31T16:08:10;23.80;99.90
2623;DHT22;1321;48.690;9.022;2023-05-31T16:10:40;23.80;99.90
2623;DHT22;1321;48.690;9.022;2023-05-31T16:13:08;23.80;99.90
2623;DHT22;1321;48.690;9.022;2023-05-31T16:15:36;23.80;99.90
2623;DHT22;1321;48.690;9.022;2023-05-31T16:18:04;23.80;99.90